Aérodrome :
LOGIN :

S'inscrire | Disclaimer

   EN    FR    IT 

 










Légende :    VFR   VFR Marginal   IFR   IFR Intensif   IFR Très Intensif
Visi : 
Plafond : 
>= 8 km
>= 3000ft
5 à 8 km
1000 à 3000 ft
1500m à 5 km
500 à 1000 ft
800 à 1500m
200 à 500 ft
< 800m
< 200 ft
Symboles :   Orages  Brouillard  Fortes neiges  Fortes précipitations  Vent > 20 kt
SIGMETs :   Divers  Orages  Givrage  Turbulence  Onde Orograph.  Cendres Volcan.






- Altitude de l'aérodrome : 231 ft
- Code IATA : WTN


EGXW - RAF Waddington

DERNIER METAR :
  • 141720Z 06013KT 3200 RA SCT004 BKN045 10/10 Q1005 TEMPO 2000 +RA BKN002 RMK YLO2 TEMPO AMB

METARs EXPIRÉS :
  • 141709Z 05011KT 4500 RA SCT004 SCT030 OVC050 10/10 Q1005 RERA TEMPO 2000 +RA BKN002 RMK YLO2 TEMPO AMB
  • 141650Z 05011KT 3200 +RA FEW004 SCT006 BKN020 10/10 Q1005 TEMPO 2000 BKN003 RMK YLO1 TEMPO YLO2
  • 141620Z 07011KT 5000 RA FEW004 SCT006 OVC015 10/10 Q1005 TEMPO 4000 +RA BKN004 RMK YLO1 TEMPO YLO2
  • 141550Z 04007KT 5000 RA SCT008 BKN050 11/10 Q1005 TEMPO 4000 +RA BKN005 RMK GRN TEMPO YLO1
  • 141540Z 04006KT 7000 RA SCT012 BKN050 11/10 Q1005 TEMPO 4000 +RA BKN005 RMK GRN TEMPO YLO1
  • 141526Z 05007KT 6000 RA FEW012 BKN050 11/10 Q1005 TEMPO 4000 +RA SCT008 RMK WHT TEMPO GRN
  • 141450Z 07008KT 9999 -RA FEW008 OVC070 11/10 Q1006 BECMG BKN008 RMK BLU BECMG GRN

TAF TAF EGXW
Valide du 14 à 18h jusqu'au 15 à 12h UTC


141644Z 1418/1512 04010KT 9999 BKN008
TEMPO 1418/1510 6000 BR BKN003
TEMPO 1418/1423 4000 RA
PROB40
TEMPO 1418/1423 2000 +RA BKN002
PROB40
TEMPO 1423/1507 2000 -DZ BKN002
PROB30
TEMPO 1500/1506 0500 FG BKN001



MET'MAP, la Météo Aéronautique d'un coup d'oeil ! - Copyright ORBIFLY Décembre 2007 - Disclaimer

ORBIFLY MET'MAP TEAM :

Programmation & Développement : Alexandra Zaïnal
Conception & Développement : Baudouin d'Aumeries
Co-Programmation & Développement : Marc-Olivier Méhu
Soutien technique & logistique : Manuel Goepfert

Contact : metmap@orbifly.com




SOURCES & CREDITS :

   NOAA